sensor_id;sensor_type;location;lat;lon;timestamp;temperature;humidity
71514;DHT22;59335;46.652;21.272;2023-04-16T00:02:30;21.71;38.98
71514;DHT22;59335;46.652;21.272;2023-04-16T00:05:33;21.68;38.95
71514;DHT22;59335;46.652;21.272;2023-04-16T00:08:36;21.71;38.95
71514;DHT22;59335;46.652;21.272;2023-04-16T00:11:39;21.72;38.92
71514;DHT22;59335;46.652;21.272;2023-04-16T00:14:42;21.69;38.96
71514;DHT22;59335;46.652;21.272;2023-04-16T00:17:44;21.69;38.98
71514;DHT22;59335;46.652;21.272;2023-04-16T00:20:47;21.71;38.91
71514;DHT22;59335;46.652;21.272;2023-04-16T00:23:50;21.69;38.94
71514;DHT22;59335;46.652;21.272;2023-04-16T00:26:53;21.66;38.94
71514;DHT22;59335;46.652;21.272;2023-04-16T00:29:55;21.69;38.88
71514;DHT22;59335;46.652;21.272;2023-04-16T00:32:58;21.69;38.88
71514;DHT22;59335;46.652;21.272;2023-04-16T00:36:01;21.68;38.84
71514;DHT22;59335;46.652;21.272;2023-04-16T00:39:03;21.68;38.87
71514;DHT22;59335;46.652;21.272;2023-04-16T00:42:06;21.69;38.85
71514;DHT22;59335;46.652;21.272;2023-04-16T00:45:09;21.66;38.82
71514;DHT22;59335;46.652;21.272;2023-04-16T00:48:12;21.71;38.81
71514;DHT22;59335;46.652;21.272;2023-04-16T00:51:16;21.68;38.79
71514;DHT22;59335;46.652;21.272;2023-04-16T00:54:19;21.69;38.82
71514;DHT22;59335;46.652;21.272;2023-04-16T00:57:22;21.68;38.75
71514;DHT22;59335;46.652;21.272;2023-04-16T01:00:25;21.66;38.78
71514;DHT22;59335;46.652;21.272;2023-04-16T01:03:39;21.68;38.78
71514;DHT22;59335;46.652;21.272;2023-04-16T01:06:42;21.66;38.75
71514;DHT22;59335;46.652;21.272;2023-04-16T01:09:46;21.69;38.72
71514;DHT22;59335;46.652;21.272;2023-04-16T01:12:49;21.66;38.77
71514;DHT22;59335;46.652;21.272;2023-04-16T01:15:51;21.68;38.71
71514;DHT22;59335;46.652;21.272;2023-04-16T01:18:54;21.68;38.68
71514;DHT22;59335;46.652;21.272;2023-04-16T01:21:57;21.66;38.71
71514;DHT22;59335;46.652;21.272;2023-04-16T01:25:00;21.65;38.70
71514;DHT22;59335;46.652;21.272;2023-04-16T01:28:04;21.66;38.70
71514;DHT22;59335;46.652;21.272;2023-04-16T01:31:07;21.68;38.68
71514;DHT22;59335;46.652;21.272;2023-04-16T01:34:42;21.65;38.70
71514;DHT22;59335;46.652;21.272;2023-04-16T01:37:45;21.66;38.65
71514;DHT22;59335;46.652;21.272;2023-04-16T01:40:47;21.65;38.64
71514;DHT22;59335;46.652;21.272;2023-04-16T01:43:50;21.66;38.62
71514;DHT22;59335;46.652;21.272;2023-04-16T01:46:52;21.66;38.58
71514;DHT22;59335;46.652;21.272;2023-04-16T01:49:56;21.65;38.57
71514;DHT22;59335;46.652;21.272;2023-04-16T01:52:58;21.62;38.59
71514;DHT22;59335;46.652;21.272;2023-04-16T01:56:03;21.66;38.57
71514;DHT22;59335;46.652;21.272;2023-04-16T01:59:07;21.65;38.55
71514;DHT22;59335;46.652;21.272;2023-04-16T02:02:15;21.65;38.56
71514;DHT22;59335;46.652;21.272;2023-04-16T02:05:18;21.65;38.53
71514;DHT22;59335;46.652;21.272;2023-04-16T02:08:21;21.63;38.54
71514;DHT22;59335;46.652;21.272;2023-04-16T02:11:25;21.66;38.55
71514;DHT22;59335;46.652;21.272;2023-04-16T02:14:29;21.63;38.57
71514;DHT22;59335;46.652;21.272;2023-04-16T02:17:32;21.63;38.49
71514;DHT22;59335;46.652;21.272;2023-04-16T02:20:42;21.63;38.51
71514;DHT22;59335;46.652;21.272;2023-04-16T02:23:46;21.65;38.48
71514;DHT22;59335;46.652;21.272;2023-04-16T02:26:57;21.63;38.50
71514;DHT22;59335;46.652;21.272;2023-04-16T02:30:00;21.62;38.48
71514;DHT22;59335;46.652;21.272;2023-04-16T02:33:07;21.61;38.46
71514;DHT22;59335;46.652;21.272;2023-04-16T02:36:11;21.62;38.43
71514;DHT22;59335;46.652;21.272;2023-04-16T02:39:14;21.65;38.41
71514;DHT22;59335;46.652;21.272;2023-04-16T02:42:17;21.65;38.43
71514;DHT22;59335;46.652;21.272;2023-04-16T02:45:20;21.63;38.41
71514;DHT22;59335;46.652;21.272;2023-04-16T02:48:23;21.65;38.37
71514;DHT22;59335;46.652;21.272;2023-04-16T02:51:26;21.63;38.29
71514;DHT22;59335;46.652;21.272;2023-04-16T02:54:29;21.66;38.30
71514;DHT22;59335;46.652;21.272;2023-04-16T02:57:32;21.63;38.29
71514;DHT22;59335;46.652;21.272;2023-04-16T03:00:34;21.65;38.32
71514;DHT22;59335;46.652;21.272;2023-04-16T03:03:37;21.63;38.25
71514;DHT22;59335;46.652;21.272;2023-04-16T03:06:40;21.63;38.19
71514;DHT22;59335;46.652;21.272;2023-04-16T03:09:43;21.63;38.18
71514;DHT22;59335;46.652;21.272;2023-04-16T03:12:46;21.63;38.22
71514;DHT22;59335;46.652;21.272;2023-04-16T03:15:49;21.63;38.15
71514;DHT22;59335;46.652;21.272;2023-04-16T03:18:52;21.62;38.14
71514;DHT22;59335;46.652;21.272;2023-04-16T03:21:54;21.63;38.11
71514;DHT22;59335;46.652;21.272;2023-04-16T03:24:57;21.62;38.18
71514;DHT22;59335;46.652;21.272;2023-04-16T03:28:00;21.63;38.12
71514;DHT22;59335;46.652;21.272;2023-04-16T03:31:05;21.62;38.07
71514;DHT22;59335;46.652;21.272;2023-04-16T03:34:08;21.65;38.09
71514;DHT22;59335;46.652;21.272;2023-04-16T03:37:13;21.61;38.11
71514;DHT22;59335;46.652;21.272;2023-04-16T03:40:15;21.65;38.06
71514;DHT22;59335;46.652;21.272;2023-04-16T03:43:18;21.65;38.02
71514;DHT22;59335;46.652;21.272;2023-04-16T03:46:21;21.62;38.01
71514;DHT22;59335;46.652;21.272;2023-04-16T03:49:24;21.65;38.01
71514;DHT22;59335;46.652;21.272;2023-04-16T03:52:27;21.63;38.02
71514;DHT22;59335;46.652;21.272;2023-04-16T03:55:30;21.62;38.00
71514;DHT22;59335;46.652;21.272;2023-04-16T03:58:33;21.63;38.00
71514;DHT22;59335;46.652;21.272;2023-04-16T04:01:36;21.62;37.95
71514;DHT22;59335;46.652;21.272;2023-04-16T04:04:39;21.63;37.94
71514;DHT22;59335;46.652;21.272;2023-04-16T04:07:43;21.65;37.88
71514;DHT22;59335;46.652;21.272;2023-04-16T04:10:48;21.63;37.87
71514;DHT22;59335;46.652;21.272;2023-04-16T04:13:54;21.65;37.86
71514;DHT22;59335;46.652;21.272;2023-04-16T04:16:56;21.65;37.83
71514;DHT22;59335;46.652;21.272;2023-04-16T04:20:00;21.66;37.84
71514;DHT22;59335;46.652;21.272;2023-04-16T04:23:05;21.66;37.82
71514;DHT22;59335;46.652;21.272;2023-04-16T04:26:08;21.65;37.80
71514;DHT22;59335;46.652;21.272;2023-04-16T04:29:11;21.69;37.79
71514;DHT22;59335;46.652;21.272;2023-04-16T04:32:13;21.75;37.72
71514;DHT22;59335;46.652;21.272;2023-04-16T04:35:16;21.75;37.61
71514;DHT22;59335;46.652;21.272;2023-04-16T04:38:19;21.78;37.58
71514;DHT22;59335;46.652;21.272;2023-04-16T04:41:24;21.77;37.63
71514;DHT22;59335;46.652;21.272;2023-04-16T04:44:28;21.78;37.63
71514;DHT22;59335;46.652;21.272;2023-04-16T04:47:31;21.78;37.62
71514;DHT22;59335;46.652;21.272;2023-04-16T04:50:35;21.81;37.57
71514;DHT22;59335;46.652;21.272;2023-04-16T04:53:38;21.83;37.58
71514;DHT22;59335;46.652;21.272;2023-04-16T04:56:40;21.86;37.49
71514;DHT22;59335;46.652;21.272;2023-04-16T04:59:43;21.89;37.49
71514;DHT22;59335;46.652;21.272;2023-04-16T05:02:48;21.89;37.53
71514;DHT22;59335;46.652;21.272;2023-04-16T05:05:51;21.90;37.50
71514;DHT22;59335;46.652;21.272;2023-04-16T05:08:54;21.95;37.45
71514;DHT22;59335;46.652;21.272;2023-04-16T05:11:57;21.95;37.39
71514;DHT22;59335;46.652;21.272;2023-04-16T05:15:00;21.98;37.34
71514;DHT22;59335;46.652;21.272;2023-04-16T05:18:02;21.96;37.39
71514;DHT22;59335;46.652;21.272;2023-04-16T05:21:05;21.98;37.40
71514;DHT22;59335;46.652;21.272;2023-04-16T05:24:08;21.99;37.37
71514;DHT22;59335;46.652;21.272;2023-04-16T05:27:10;22.00;37.36
71514;DHT22;59335;46.652;21.272;2023-04-16T05:30:13;21.96;37.36
71514;DHT22;59335;46.652;21.272;2023-04-16T05:33:16;22.02;37.31
71514;DHT22;59335;46.652;21.272;2023-04-16T05:36:18;22.07;37.24
71514;DHT22;59335;46.652;21.272;2023-04-16T05:39:21;22.13;37.18
71514;DHT22;59335;46.652;21.272;2023-04-16T05:42:24;22.14;37.10
71514;DHT22;59335;46.652;21.272;2023-04-16T05:45:26;22.19;37.01
71514;DHT22;59335;46.652;21.272;2023-04-16T05:48:29;22.26;36.94
71514;DHT22;59335;46.652;21.272;2023-04-16T05:51:32;22.30;36.88
71514;DHT22;59335;46.652;21.272;2023-04-16T05:54:35;22.37;36.81
71514;DHT22;59335;46.652;21.272;2023-04-16T05:57:37;22.36;36.80
71514;DHT22;59335;46.652;21.272;2023-04-16T06:00:40;22.39;36.79
71514;DHT22;59335;46.652;21.272;2023-04-16T06:03:43;22.40;36.80
71514;DHT22;59335;46.652;21.272;2023-04-16T06:06:46;22.36;36.85
71514;DHT22;59335;46.652;21.272;2023-04-16T06:09:49;22.37;36.87
71514;DHT22;59335;46.652;21.272;2023-04-16T06:12:52;22.34;36.94
71514;DHT22;59335;46.652;21.272;2023-04-16T06:15:55;22.36;36.92
71514;DHT22;59335;46.652;21.272;2023-04-16T06:18:58;22.33;37.01
71514;DHT22;59335;46.652;21.272;2023-04-16T06:22:00;22.34;36.96
71514;DHT22;59335;46.652;21.272;2023-04-16T06:25:03;22.33;36.97
71514;DHT22;59335;46.652;21.272;2023-04-16T06:28:06;22.34;36.94
71514;DHT22;59335;46.652;21.272;2023-04-16T06:31:09;22.36;36.98
71514;DHT22;59335;46.652;21.272;2023-04-16T06:34:12;22.36;36.97
71514;DHT22;59335;46.652;21.272;2023-04-16T06:37:14;22.36;36.99
71514;DHT22;59335;46.652;21.272;2023-04-16T06:40:17;22.34;37.01
71514;DHT22;59335;46.652;21.272;2023-04-16T06:43:20;22.37;36.97
71514;DHT22;59335;46.652;21.272;2023-04-16T06:46:23;22.36;37.02
71514;DHT22;59335;46.652;21.272;2023-04-16T06:49:26;22.37;36.98
71514;DHT22;59335;46.652;21.272;2023-04-16T06:52:29;22.40;36.93
71514;DHT22;59335;46.652;21.272;2023-04-16T06:55:32;22.40;36.97
71514;DHT22;59335;46.652;21.272;2023-04-16T06:58:35;22.40;36.97
71514;DHT22;59335;46.652;21.272;2023-04-16T07:01:38;22.39;37.00
71514;DHT22;59335;46.652;21.272;2023-04-16T07:04:42;22.39;37.02
71514;DHT22;59335;46.652;21.272;2023-04-16T07:07:45;22.36;37.05
71514;DHT22;59335;46.652;21.272;2023-04-16T07:10:48;22.36;37.10
71514;DHT22;59335;46.652;21.272;2023-04-16T07:13:50;22.33;37.16
71514;DHT22;59335;46.652;21.272;2023-04-16T07:16:55;22.33;37.18
71514;DHT22;59335;46.652;21.272;2023-04-16T07:19:57;22.30;37.20
71514;DHT22;59335;46.652;21.272;2023-04-16T07:23:00;22.29;37.24
71514;DHT22;59335;46.652;21.272;2023-04-16T07:26:03;22.30;37.22
71514;DHT22;59335;46.652;21.272;2023-04-16T07:29:06;22.26;37.28
71514;DHT22;59335;46.652;21.272;2023-04-16T07:32:08;22.24;37.36
71514;DHT22;59335;46.652;21.272;2023-04-16T07:35:11;22.26;37.30
71514;DHT22;59335;46.652;21.272;2023-04-16T07:38:14;22.23;37.40
71514;DHT22;59335;46.652;21.272;2023-04-16T07:41:18;22.24;37.40
71514;DHT22;59335;46.652;21.272;2023-04-16T07:44:20;22.24;37.44
71514;DHT22;59335;46.652;21.272;2023-04-16T07:47:23;22.21;37.41
71514;DHT22;59335;46.652;21.272;2023-04-16T07:50:27;22.24;37.47
71514;DHT22;59335;46.652;21.272;2023-04-16T07:53:30;22.23;37.48
71514;DHT22;59335;46.652;21.272;2023-04-16T07:56:33;22.23;37.43
71514;DHT22;59335;46.652;21.272;2023-04-16T07:59:35;22.24;37.49
71514;DHT22;59335;46.652;21.272;2023-04-16T08:02:38;22.26;37.51
71514;DHT22;59335;46.652;21.272;2023-04-16T08:05:41;22.29;37.52
71514;DHT22;59335;46.652;21.272;2023-04-16T08:08:44;22.30;37.50
71514;DHT22;59335;46.652;21.272;2023-04-16T08:11:48;22.33;37.45
71514;DHT22;59335;46.652;21.272;2023-04-16T08:14:52;22.36;37.40
71514;DHT22;59335;46.652;21.272;2023-04-16T08:17:54;22.39;37.41
71514;DHT22;59335;46.652;21.272;2023-04-16T08:20:57;22.39;37.46
71514;DHT22;59335;46.652;21.272;2023-04-16T08:24:00;22.40;37.40
71514;DHT22;59335;46.652;21.272;2023-04-16T08:27:02;22.41;37.36
71514;DHT22;59335;46.652;21.272;2023-04-16T08:30:20;22.47;37.34
71514;DHT22;59335;46.652;21.272;2023-04-16T08:33:23;22.48;37.36
71514;DHT22;59335;46.652;21.272;2023-04-16T08:36:25;22.50;37.29
71514;DHT22;59335;46.652;21.272;2023-04-16T08:39:29;22.51;37.30
71514;DHT22;59335;46.652;21.272;2023-04-16T08:42:33;22.55;37.24
71514;DHT22;59335;46.652;21.272;2023-04-16T08:45:42;22.55;37.27
71514;DHT22;59335;46.652;21.272;2023-04-16T08:48:48;22.57;37.24
71514;DHT22;59335;46.652;21.272;2023-04-16T08:51:53;22.60;37.28
71514;DHT22;59335;46.652;21.272;2023-04-16T08:58:12;22.61;37.26
71514;DHT22;59335;46.652;21.272;2023-04-16T09:01:17;22.61;37.26
71514;DHT22;59335;46.652;21.272;2023-04-16T09:04:21;22.58;37.33
71514;DHT22;59335;46.652;21.272;2023-04-16T09:07:26;22.61;37.31
71514;DHT22;59335;46.652;21.272;2023-04-16T09:10:30;22.61;37.31
71514;DHT22;59335;46.652;21.272;2023-04-16T09:13:32;22.61;37.38
71514;DHT22;59335;46.652;21.272;2023-04-16T09:16:35;22.60;37.38
71514;DHT22;59335;46.652;21.272;2023-04-16T09:19:38;22.60;37.44
71514;DHT22;59335;46.652;21.272;2023-04-16T09:22:42;22.58;37.45
71514;DHT22;59335;46.652;21.272;2023-04-16T09:25:45;22.57;37.45
71514;DHT22;59335;46.652;21.272;2023-04-16T09:28:48;22.61;37.50
71514;DHT22;59335;46.652;21.272;2023-04-16T09:32:01;22.58;37.47
71514;DHT22;59335;46.652;21.272;2023-04-16T09:35:04;22.58;37.46
71514;DHT22;59335;46.652;21.272;2023-04-16T09:38:07;22.60;37.51
71514;DHT22;59335;46.652;21.272;2023-04-16T09:41:10;22.60;37.46
71514;DHT22;59335;46.652;21.272;2023-04-16T09:44:12;22.61;37.45
71514;DHT22;59335;46.652;21.272;2023-04-16T09:47:15;22.63;37.48
71514;DHT22;59335;46.652;21.272;2023-04-16T09:50:18;22.63;37.48
71514;DHT22;59335;46.652;21.272;2023-04-16T09:53:26;22.67;37.47
71514;DHT22;59335;46.652;21.272;2023-04-16T09:56:29;22.65;37.49
71514;DHT22;59335;46.652;21.272;2023-04-16T09:59:34;22.65;37.49
71514;DHT22;59335;46.652;21.272;2023-04-16T10:02:40;22.64;37.50
71514;DHT22;59335;46.652;21.272;2023-04-16T10:05:44;22.68;37.47
71514;DHT22;59335;46.652;21.272;2023-04-16T10:08:50;22.67;37.50
71514;DHT22;59335;46.652;21.272;2023-04-16T10:11:54;22.67;37.58
71514;DHT22;59335;46.652;21.272;2023-04-16T10:14:56;22.65;37.54
71514;DHT22;59335;46.652;21.272;2023-04-16T10:17:59;22.65;37.60
71514;DHT22;59335;46.652;21.272;2023-04-16T10:21:03;22.65;37.58
71514;DHT22;59335;46.652;21.272;2023-04-16T10:24:06;22.65;37.60
71514;DHT22;59335;46.652;21.272;2023-04-16T10:27:09;22.68;37.57
71514;DHT22;59335;46.652;21.272;2023-04-16T10:30:14;22.65;37.64
71514;DHT22;59335;46.652;21.272;2023-04-16T10:33:27;22.68;37.60
71514;DHT22;59335;46.652;21.272;2023-04-16T10:36:35;22.64;37.60
71514;DHT22;59335;46.652;21.272;2023-04-16T10:39:38;22.67;37.61
71514;DHT22;59335;46.652;21.272;2023-04-16T10:42:40;22.68;37.59
71514;DHT22;59335;46.652;21.272;2023-04-16T10:45:43;22.68;37.59
71514;DHT22;59335;46.652;21.272;2023-04-16T10:48:48;22.68;37.56
71514;DHT22;59335;46.652;21.272;2023-04-16T10:51:59;22.65;37.58
71514;DHT22;59335;46.652;21.272;2023-04-16T10:55:04;22.65;37.54
71514;DHT22;59335;46.652;21.272;2023-04-16T10:58:26;22.65;37.53
71514;DHT22;59335;46.652;21.272;2023-04-16T11:01:40;22.68;37.58
71514;DHT22;59335;46.652;21.272;2023-04-16T11:04:44;22.65;37.60
71514;DHT22;59335;46.652;21.272;2023-04-16T11:07:47;22.65;37.61
71514;DHT22;59335;46.652;21.272;2023-04-16T11:10:51;22.65;37.61
71514;DHT22;59335;46.652;21.272;2023-04-16T11:13:55;22.67;37.61
71514;DHT22;59335;46.652;21.272;2023-04-16T11:17:02;22.67;37.60
71514;DHT22;59335;46.652;21.272;2023-04-16T11:20:09;22.65;37.64
71514;DHT22;59335;46.652;21.272;2023-04-16T11:23:21;22.67;37.60
71514;DHT22;59335;46.652;21.272;2023-04-16T11:26:27;22.65;37.65
71514;DHT22;59335;46.652;21.272;2023-04-16T11:29:32;22.65;37.67
71514;DHT22;59335;46.652;21.272;2023-04-16T11:32:36;22.65;37.69
71514;DHT22;59335;46.652;21.272;2023-04-16T11:35:39;22.67;37.72
71514;DHT22;59335;46.652;21.272;2023-04-16T11:38:44;22.64;37.78
71514;DHT22;59335;46.652;21.272;2023-04-16T11:41:48;22.64;37.71
71514;DHT22;59335;46.652;21.272;2023-04-16T11:44:56;22.64;37.76
71514;DHT22;59335;46.652;21.272;2023-04-16T11:47:59;22.67;37.72
71514;DHT22;59335;46.652;21.272;2023-04-16T11:51:02;22.64;37.71
71514;DHT22;59335;46.652;21.272;2023-04-16T11:54:05;22.68;37.69
71514;DHT22;59335;46.652;21.272;2023-04-16T11:57:10;22.68;37.69
71514;DHT22;59335;46.652;21.272;2023-04-16T12:00:13;22.65;37.68
71514;DHT22;59335;46.652;21.272;2023-04-16T12:03:16;22.67;37.68
71514;DHT22;59335;46.652;21.272;2023-04-16T12:06:19;22.67;37.69
71514;DHT22;59335;46.652;21.272;2023-04-16T12:09:25;22.67;37.65
71514;DHT22;59335;46.652;21.272;2023-04-16T12:12:30;22.68;37.64
71514;DHT22;59335;46.652;21.272;2023-04-16T12:15:44;22.67;37.68
71514;DHT22;59335;46.652;21.272;2023-04-16T12:19:01;22.68;37.68
71514;DHT22;59335;46.652;21.272;2023-04-16T12:22:05;22.65;37.68
71514;DHT22;59335;46.652;21.272;2023-04-16T12:25:12;22.68;37.69
71514;DHT22;59335;46.652;21.272;2023-04-16T12:28:30;22.65;37.72
71514;DHT22;59335;46.652;21.272;2023-04-16T12:31:36;22.69;37.70
71514;DHT22;59335;46.652;21.272;2023-04-16T12:34:49;22.64;37.73
71514;DHT22;59335;46.652;21.272;2023-04-16T12:37:52;22.67;37.75
71514;DHT22;59335;46.652;21.272;2023-04-16T12:40:55;22.68;37.74
71514;DHT22;59335;46.652;21.272;2023-04-16T12:44:17;22.67;37.73
71514;DHT22;59335;46.652;21.272;2023-04-16T12:47:20;22.68;37.75
71514;DHT22;59335;46.652;21.272;2023-04-16T12:50:22;22.67;37.70
71514;DHT22;59335;46.652;21.272;2023-04-16T12:53:25;22.67;37.75
71514;DHT22;59335;46.652;21.272;2023-04-16T12:56:29;22.67;37.75
71514;DHT22;59335;46.652;21.272;2023-04-16T12:59:32;22.65;37.69
71514;DHT22;59335;46.652;21.272;2023-04-16T13:02:35;22.67;37.71
71514;DHT22;59335;46.652;21.272;2023-04-16T13:05:39;22.65;37.71
71514;DHT22;59335;46.652;21.272;2023-04-16T13:08:42;22.64;37.71
71514;DHT22;59335;46.652;21.272;2023-04-16T13:11:45;22.64;37.73
71514;DHT22;59335;46.652;21.272;2023-04-16T13:14:48;22.65;37.76
71514;DHT22;59335;46.652;21.272;2023-04-16T13:17:51;22.65;37.72
71514;DHT22;59335;46.652;21.272;2023-04-16T13:20:54;22.61;37.76
71514;DHT22;59335;46.652;21.272;2023-04-16T13:23:58;22.64;37.75
71514;DHT22;59335;46.652;21.272;2023-04-16T13:27:00;22.63;37.75
71514;DHT22;59335;46.652;21.272;2023-04-16T13:30:03;22.61;37.72
71514;DHT22;59335;46.652;21.272;2023-04-16T13:33:07;22.58;37.74
71514;DHT22;59335;46.652;21.272;2023-04-16T13:36:09;22.58;37.76
71514;DHT22;59335;46.652;21.272;2023-04-16T13:39:12;22.58;37.70
71514;DHT22;59335;46.652;21.272;2023-04-16T13:42:17;22.57;37.68
71514;DHT22;59335;46.652;21.272;2023-04-16T13:45:20;22.55;37.77
71514;DHT22;59335;46.652;21.272;2023-04-16T13:48:23;22.55;37.74
71514;DHT22;59335;46.652;21.272;2023-04-16T13:51:25;22.54;37.72
71514;DHT22;59335;46.652;21.272;2023-04-16T13:54:31;22.54;37.74
71514;DHT22;59335;46.652;21.272;2023-04-16T13:57:34;22.53;37.75
71514;DHT22;59335;46.652;21.272;2023-04-16T14:00:38;22.54;37.75
71514;DHT22;59335;46.652;21.272;2023-04-16T14:03:41;22.50;37.69
71514;DHT22;59335;46.652;21.272;2023-04-16T14:06:44;22.50;37.72
71514;DHT22;59335;46.652;21.272;2023-04-16T14:09:47;22.48;37.76
71514;DHT22;59335;46.652;21.272;2023-04-16T14:12:50;22.44;37.73
71514;DHT22;59335;46.652;21.272;2023-04-16T14:15:53;22.44;37.80
71514;DHT22;59335;46.652;21.272;2023-04-16T14:18:56;22.47;37.76
71514;DHT22;59335;46.652;21.272;2023-04-16T14:21:59;22.43;37.80
71514;DHT22;59335;46.652;21.272;2023-04-16T14:25:01;22.44;37.77
71514;DHT22;59335;46.652;21.272;2023-04-16T14:28:04;22.43;37.75
71514;DHT22;59335;46.652;21.272;2023-04-16T14:31:07;22.41;37.80
71514;DHT22;59335;46.652;21.272;2023-04-16T14:34:10;22.40;37.79
71514;DHT22;59335;46.652;21.272;2023-04-16T14:37:14;22.37;37.78
71514;DHT22;59335;46.652;21.272;2023-04-16T14:40:18;22.39;37.82
71514;DHT22;59335;46.652;21.272;2023-04-16T14:43:20;22.37;37.82
71514;DHT22;59335;46.652;21.272;2023-04-16T14:46:24;22.37;37.83
71514;DHT22;59335;46.652;21.272;2023-04-16T14:49:28;22.34;37.86
71514;DHT22;59335;46.652;21.272;2023-04-16T14:52:31;22.36;37.84
71514;DHT22;59335;46.652;21.272;2023-04-16T14:55:34;22.33;37.87
71514;DHT22;59335;46.652;21.272;2023-04-16T14:58:37;22.34;37.87
71514;DHT22;59335;46.652;21.272;2023-04-16T15:01:41;22.32;37.87
71514;DHT22;59335;46.652;21.272;2023-04-16T15:04:44;22.32;37.94
71514;DHT22;59335;46.652;21.272;2023-04-16T15:07:47;22.29;37.89
71514;DHT22;59335;46.652;21.272;2023-04-16T15:10:50;22.29;37.96
71514;DHT22;59335;46.652;21.272;2023-04-16T15:13:53;22.26;37.88
71514;DHT22;59335;46.652;21.272;2023-04-16T15:16:56;22.27;37.95
71514;DHT22;59335;46.652;21.272;2023-04-16T15:20:00;22.27;37.95
71514;DHT22;59335;46.652;21.272;2023-04-16T15:23:03;22.24;37.97
71514;DHT22;59335;46.652;21.272;2023-04-16T15:26:06;22.24;37.97
71514;DHT22;59335;46.652;21.272;2023-04-16T15:29:09;22.26;37.99
71514;DHT22;59335;46.652;21.272;2023-04-16T15:32:13;22.23;38.03
71514;DHT22;59335;46.652;21.272;2023-04-16T15:35:15;22.23;38.03
71514;DHT22;59335;46.652;21.272;2023-04-16T15:38:21;22.20;38.02
71514;DHT22;59335;46.652;21.272;2023-04-16T15:41:27;22.21;38.05
71514;DHT22;59335;46.652;21.272;2023-04-16T15:44:31;22.17;38.07
71514;DHT22;59335;46.652;21.272;2023-04-16T15:47:34;22.20;38.02
71514;DHT22;59335;46.652;21.272;2023-04-16T15:50:40;22.20;38.01
71514;DHT22;59335;46.652;21.272;2023-04-16T15:53:43;22.19;38.09
71514;DHT22;59335;46.652;21.272;2023-04-16T15:56:47;22.16;38.11
71514;DHT22;59335;46.652;21.272;2023-04-16T15:59:50;22.16;38.09
71514;DHT22;59335;46.652;21.272;2023-04-16T16:03:08;22.14;38.09
71514;DHT22;59335;46.652;21.272;2023-04-16T16:06:13;22.14;38.09
71514;DHT22;59335;46.652;21.272;2023-04-16T16:09:17;22.13;38.10
71514;DHT22;59335;46.652;21.272;2023-04-16T16:12:27;22.13;38.09
71514;DHT22;59335;46.652;21.272;2023-04-16T16:15:31;22.12;38.09
71514;DHT22;59335;46.652;21.272;2023-04-16T16:18:34;22.12;38.11
71514;DHT22;59335;46.652;21.272;2023-04-16T16:21:37;22.09;38.16
71514;DHT22;59335;46.652;21.272;2023-04-16T16:24:40;22.09;38.16
71514;DHT22;59335;46.652;21.272;2023-04-16T16:27:44;22.07;38.12
71514;DHT22;59335;46.652;21.272;2023-04-16T16:30:47;22.07;38.15
71514;DHT22;59335;46.652;21.272;2023-04-16T16:33:52;22.07;38.12
71514;DHT22;59335;46.652;21.272;2023-04-16T16:36:55;22.05;38.21
71514;DHT22;59335;46.652;21.272;2023-04-16T16:40:00;22.05;38.23
71514;DHT22;59335;46.652;21.272;2023-04-16T16:43:04;22.06;38.22
71514;DHT22;59335;46.652;21.272;2023-04-16T16:46:07;22.06;38.25
71514;DHT22;59335;46.652;21.272;2023-04-16T16:49:14;22.03;38.28
71514;DHT22;59335;46.652;21.272;2023-04-16T16:52:17;22.02;38.26
71514;DHT22;59335;46.652;21.272;2023-04-16T16:55:24;22.00;38.33
71514;DHT22;59335;46.652;21.272;2023-04-16T16:58:27;22.02;38.30
71514;DHT22;59335;46.652;21.272;2023-04-16T17:01:31;22.02;38.34
71514;DHT22;59335;46.652;21.272;2023-04-16T17:04:36;22.00;38.35
71514;DHT22;59335;46.652;21.272;2023-04-16T17:07:40;22.00;38.40
71514;DHT22;59335;46.652;21.272;2023-04-16T17:10:43;22.02;38.40
71514;DHT22;59335;46.652;21.272;2023-04-16T17:13:47;22.00;38.48
71514;DHT22;59335;46.652;21.272;2023-04-16T17:16:50;21.98;38.48
71514;DHT22;59335;46.652;21.272;2023-04-16T17:19:53;21.99;38.51
71514;DHT22;59335;46.652;21.272;2023-04-16T17:22:57;21.98;38.53
71514;DHT22;59335;46.652;21.272;2023-04-16T17:26:02;21.96;38.53
71514;DHT22;59335;46.652;21.272;2023-04-16T17:29:06;21.95;38.61
71514;DHT22;59335;46.652;21.272;2023-04-16T17:32:09;21.96;38.61
71514;DHT22;59335;46.652;21.272;2023-04-16T17:35:12;21.95;38.63
71514;DHT22;59335;46.652;21.272;2023-04-16T17:38:16;21.95;38.62
71514;DHT22;59335;46.652;21.272;2023-04-16T17:41:20;21.98;38.64
71514;DHT22;59335;46.652;21.272;2023-04-16T17:44:24;21.95;38.68
71514;DHT22;59335;46.652;21.272;2023-04-16T17:47:30;21.92;38.74
71514;DHT22;59335;46.652;21.272;2023-04-16T17:50:33;21.92;38.71
71514;DHT22;59335;46.652;21.272;2023-04-16T17:53:39;21.92;38.72
71514;DHT22;59335;46.652;21.272;2023-04-16T17:56:45;21.92;38.74
71514;DHT22;59335;46.652;21.272;2023-04-16T17:59:49;21.89;38.76
71514;DHT22;59335;46.652;21.272;2023-04-16T18:02:52;21.89;38.76
71514;DHT22;59335;46.652;21.272;2023-04-16T18:05:59;21.93;38.79
71514;DHT22;59335;46.652;21.272;2023-04-16T18:09:04;21.90;38.76
71514;DHT22;59335;46.652;21.272;2023-04-16T18:12:08;21.90;38.78
71514;DHT22;59335;46.652;21.272;2023-04-16T18:15:12;21.88;38.84
71514;DHT22;59335;46.652;21.272;2023-04-16T18:18:17;21.89;38.84
71514;DHT22;59335;46.652;21.272;2023-04-16T18:21:23;21.86;38.83
71514;DHT22;59335;46.652;21.272;2023-04-16T18:24:27;21.86;38.86
71514;DHT22;59335;46.652;21.272;2023-04-16T18:27:30;21.86;38.83
71514;DHT22;59335;46.652;21.272;2023-04-16T18:30:33;21.86;38.86
71514;DHT22;59335;46.652;21.272;2023-04-16T18:33:42;21.86;38.87
71514;DHT22;59335;46.652;21.272;2023-04-16T18:36:59;21.86;38.90
71514;DHT22;59335;46.652;21.272;2023-04-16T18:40:04;21.85;38.91
71514;DHT22;59335;46.652;21.272;2023-04-16T18:43:14;21.86;38.94
71514;DHT22;59335;46.652;21.272;2023-04-16T18:46:18;21.83;38.99
71514;DHT22;59335;46.652;21.272;2023-04-16T18:49:22;21.85;38.96
71514;DHT22;59335;46.652;21.272;2023-04-16T18:52:25;21.82;38.95
71514;DHT22;59335;46.652;21.272;2023-04-16T18:55:29;21.83;39.01
71514;DHT22;59335;46.652;21.272;2023-04-16T18:58:34;21.83;38.96
71514;DHT22;59335;46.652;21.272;2023-04-16T19:01:38;21.81;38.95
71514;DHT22;59335;46.652;21.272;2023-04-16T19:04:42;21.83;38.95
71514;DHT22;59335;46.652;21.272;2023-04-16T19:07:46;21.81;39.00